Time;durP1;ratioP1;P1;durP2;ratioP2;P2;SDS_P1;SDS_P2;PMS_P1;PMS_P2;Temp;Humidity;BMP_temperature;BMP_pressure;BME280_temperature;BME280_humidity;BME280_pressure;Samples;Min_cycle;Max_cycle;Signal;HPM_P1;HPM_P2
2023/11/15 00:00:49;;;;;;;1.38;1.17;;;18.60;61.70;;;;;;5082962;28;20478;-35
2023/11/15 00:03:16;;;;;;;1.17;1.08;;;18.60;61.70;;;;;;5082110;28;20084;-34
2023/11/15 00:05:45;;;;;;;1.67;1.40;;;18.60;62.50;;;;;;5082422;28;20093;-34
2023/11/15 00:08:11;;;;;;;1.48;1.23;;;18.50;61.50;;;;;;5075781;28;20043;-35
2023/11/15 00:10:41;;;;;;;2.10;1.55;;;18.50;61.70;;;;;;5082303;28;20029;-35
2023/11/15 00:13:08;;;;;;;2.03;1.50;;;18.60;61.80;;;;;;5083172;28;20457;-34
2023/11/15 00:15:34;;;;;;;1.48;1.38;;;18.50;61.80;;;;;;5083130;28;20040;-35
2023/11/15 00:18:04;;;;;;;1.55;1.23;;;18.50;61.80;;;;;;5082811;28;20051;-35
2023/11/15 00:20:36;;;;;;;1.40;1.10;;;18.50;61.80;;;;;;5082446;28;20032;-35
2023/11/15 00:23:02;;;;;;;1.60;1.23;;;18.50;61.80;;;;;;5082995;28;20120;-35
2023/11/15 00:25:29;;;;;;;1.92;1.52;;;18.50;61.80;;;;;;5082583;28;20512;-34
2023/11/15 00:27:55;;;;;;;1.38;1.25;;;18.40;61.90;;;;;;5083007;28;20024;-34
2023/11/15 00:30:22;;;;;;;1.70;1.20;;;18.40;61.80;;;;;;5085165;28;20029;-34
2023/11/15 00:32:48;;;;;;;2.15;1.40;;;18.40;61.90;;;;;;5082671;28;20039;-34
2023/11/15 00:35:16;;;;;;;2.72;1.50;;;18.40;61.90;;;;;;5087220;28;20032;-35
2023/11/15 00:37:42;;;;;;;;;;;18.40;61.90;;;;;;5076317;28;20203;-35
2023/11/15 00:40:13;;;;;;;1.35;1.25;;;18.40;62.00;;;;;;5082231;28;20369;-34
2023/11/15 00:42:40;;;;;;;1.40;1.30;;;18.40;62.10;;;;;;5075064;28;20467;-34
2023/11/15 00:45:08;;;;;;;1.85;1.25;;;18.40;62.00;;;;;;5082466;28;20049;-34
2023/11/15 00:47:35;;;;;;;1.95;1.20;;;18.40;62.00;;;;;;5081977;28;20044;-34
2023/11/15 00:50:02;;;;;;;1.60;1.20;;;18.30;61.90;;;;;;5081402;28;20058;-34
2023/11/15 00:52:28;;;;;;;;;;;18.30;61.90;;;;;;5082947;28;20043;-35
2023/11/15 00:54:54;;;;;;;2.45;1.40;;;18.30;61.90;;;;;;5082539;28;19913;-34
2023/11/15 00:57:20;;;;;;;1.60;1.30;;;18.30;61.90;;;;;;5081569;28;20082;-34
2023/11/15 00:59:47;;;;;;;1.60;1.50;;;18.30;61.90;;;;;;5081682;28;20098;-34
2023/11/15 01:02:18;;;;;;;2.70;1.48;;;18.30;62.00;;;;;;5082165;28;20024;-34
2023/11/15 01:04:46;;;;;;;1.50;1.40;;;18.30;62.00;;;;;;5074997;28;20050;-38
2023/11/15 01:07:12;;;;;;;2.42;1.65;;;18.30;62.10;;;;;;5075143;28;20047;-33
2023/11/15 01:09:39;;;;;;;1.43;1.23;;;18.30;62.10;;;;;;5081662;28;20056;-34
2023/11/15 01:12:05;;;;;;;2.28;1.40;;;18.20;62.10;;;;;;5082576;28;20044;-34
2023/11/15 01:14:31;;;;;;;1.63;1.43;;;18.20;62.10;;;;;;5066164;28;20024;-34
2023/11/15 01:16:58;;;;;;;1.50;1.30;;;18.20;62.10;;;;;;5085943;28;20035;-34
2023/11/15 01:19:24;;;;;;;2.13;1.60;;;18.20;62.10;;;;;;5085499;28;20558;-34
2023/11/15 01:21:50;;;;;;;1.73;1.35;;;18.20;62.10;;;;;;5086153;28;20028;-35
2023/11/15 01:24:16;;;;;;;2.10;1.50;;;18.20;62.20;;;;;;5085332;28;20024;-35
2023/11/15 01:26:43;;;;;;;1.52;1.30;;;18.20;62.20;;;;;;5082341;28;20040;-35
2023/11/15 01:29:09;;;;;;;1.60;1.50;;;18.10;62.10;;;;;;5085874;28;20055;-34
2023/11/15 01:31:35;;;;;;;2.25;1.55;;;18.10;62.20;;;;;;5069102;28;20092;-34
2023/11/15 01:34:01;;;;;;;1.80;1.48;;;18.10;62.20;;;;;;5085426;28;20118;-34
2023/11/15 01:36:28;;;;;;;1.63;1.52;;;18.10;62.40;;;;;;5084303;28;20033;-34
2023/11/15 01:38:55;;;;;;;2.33;1.45;;;18.10;62.40;;;;;;5080109;28;20031;-34
2023/11/15 01:41:21;;;;;;;;;;;18.10;62.40;;;;;;5086662;28;20028;-33
2023/11/15 01:43:47;;;;;;;1.60;1.42;;;18.10;62.40;;;;;;5092014;28;19923;-33
2023/11/15 01:46:14;;;;;;;2.67;1.30;;;18.10;62.40;;;;;;5084916;28;20037;-34
2023/11/15 01:48:40;;;;;;;1.55;1.45;;;18.10;62.40;;;;;;5085144;28;20028;-34
2023/11/15 01:51:06;;;;;;;2.38;1.60;;;18.00;62.40;;;;;;5077002;28;20040;-34
2023/11/15 01:53:33;;;;;;;1.60;1.50;;;18.00;62.50;;;;;;5084224;28;20033;-33
2023/11/15 01:55:59;;;;;;;2.65;1.70;;;18.00;62.50;;;;;;5085366;28;20025;-33
2023/11/15 01:58:28;;;;;;;1.67;1.58;;;18.00;62.40;;;;;;5084443;28;20028;-34
2023/11/15 02:00:54;;;;;;;2.00;1.77;;;18.00;62.60;;;;;;5085172;28;20047;-35
2023/11/15 02:03:21;;;;;;;1.77;1.63;;;18.00;62.50;;;;;;5084432;28;20036;-33
2023/11/15 02:05:48;;;;;;;2.03;1.83;;;18.00;62.70;;;;;;5085498;28;20033;-34
2023/11/15 02:08:16;;;;;;;1.50;1.40;;;18.00;62.70;;;;;;5084753;28;20024;-34
2023/11/15 02:10:43;;;;;;;1.92;1.63;;;18.00;62.70;;;;;;5084977;28;20116;-34
2023/11/15 02:13:31;;;;;;;1.85;1.60;;;17.90;62.80;;;;;;5085179;28;20129;-34
2023/11/15 02:15:58;;;;;;;1.90;1.65;;;17.90;62.60;;;;;;5085277;28;20040;-34
2023/11/15 02:18:26;;;;;;;2.10;1.50;;;17.90;62.60;;;;;;5084076;28;20127;-34
2023/11/15 02:20:53;;;;;;;2.00;1.60;;;17.90;62.80;;;;;;5084932;28;20527;-35
2023/11/15 02:23:30;;;;;;;2.47;1.73;;;17.90;62.80;;;;;;5082956;28;20033;-35
2023/11/15 02:26:02;;;;;;;1.73;1.63;;;17.90;62.80;;;;;;5088203;28;20068;-35
2023/11/15 02:28:30;;;;;;;1.80;1.48;;;17.90;62.70;;;;;;5082780;28;20025;-35
2023/11/15 02:30:58;;;;;;;;;;;17.80;62.60;;;;;;5093020;28;20461;-34
2023/11/15 02:33:25;;;;;;;1.42;1.25;;;17.80;62.80;;;;;;5083854;28;19912;-34
2023/11/15 02:35:56;;;;;;;1.63;1.50;;;17.80;62.90;;;;;;5084397;28;20043;-34
2023/11/15 02:38:26;;;;;;;1.70;1.60;;;17.80;62.80;;;;;;5075326;28;20053;-34
2023/11/15 02:40:54;;;;;;;3.20;1.77;;;17.80;63.00;;;;;;5084560;28;20028;-34
2023/11/15 02:43:20;;;;;;;2.65;1.80;;;17.80;63.00;;;;;;5083495;28;20036;-34
2023/11/15 02:45:49;;;;;;;2.05;1.85;;;17.80;63.00;;;;;;5084250;28;20085;-34
2023/11/15 02:48:16;;;;;;;2.08;1.67;;;17.80;63.00;;;;;;5083547;28;20410;-34
2023/11/15 02:50:44;;;;;;;3.00;1.52;;;17.80;63.70;;;;;;5076973;28;20024;-34
2023/11/15 02:53:11;;;;;;;2.75;1.80;;;17.80;63.60;;;;;;5084128;28;20465;-34
2023/11/15 02:55:37;;;;;;;2.37;1.77;;;17.70;63.10;;;;;;5083904;28;20089;-34
2023/11/15 02:58:04;;;;;;;2.72;1.58;;;17.70;63.00;;;;;;5084361;28;20059;-34
2023/11/15 03:00:31;;;;;;;2.00;1.63;;;17.70;63.00;;;;;;5083734;28;21753;-35
2023/11/15 03:02:58;;;;;;;2.30;1.60;;;17.70;63.00;;;;;;5084164;28;20506;-35
2023/11/15 03:05:24;;;;;;;2.20;1.65;;;17.70;63.00;;;;;;5083316;28;20032;-41
2023/11/15 03:07:51;;;;;;;1.83;1.52;;;17.70;63.10;;;;;;5076322;28;20088;-34
2023/11/15 03:10:17;;;;;;;1.70;1.58;;;17.70;63.20;;;;;;5083438;28;20028;-34
2023/11/15 03:12:44;;;;;;;2.20;1.60;;;17.70;63.20;;;;;;5077171;28;20048;-35
2023/11/15 03:15:11;;;;;;;2.25;1.75;;;17.70;63.20;;;;;;5083545;28;20058;-34
2023/11/15 03:17:38;;;;;;;2.58;1.77;;;17.70;63.20;;;;;;5083514;28;20028;-34
2023/11/15 03:20:05;;;;;;;2.20;1.52;;;17.60;63.20;;;;;;5083871;28;20038;-34
2023/11/15 03:22:32;;;;;;;1.92;1.60;;;17.60;63.10;;;;;;5083225;28;20066;-34
2023/11/15 03:24:59;;;;;;;2.13;1.60;;;17.60;63.10;;;;;;5083795;28;20083;-34
2023/11/15 03:27:25;;;;;;;1.80;1.53;;;17.60;63.20;;;;;;5083554;28;20071;-34
2023/11/15 03:29:51;;;;;;;2.45;1.70;;;17.60;63.30;;;;;;5083352;28;20020;-34
2023/11/15 03:32:17;;;;;;;2.85;1.75;;;17.60;63.30;;;;;;5082888;28;20032;-34
2023/11/15 03:34:43;;;;;;;2.28;1.77;;;17.60;63.30;;;;;;5076202;28;20016;-34
2023/11/15 03:37:10;;;;;;;1.85;1.67;;;17.60;63.30;;;;;;5076776;28;20044;-34
2023/11/15 03:39:37;;;;;;;2.17;1.58;;;17.50;63.40;;;;;;5082050;28;20020;-34
2023/11/15 03:42:05;;;;;;;2.20;1.90;;;17.60;63.50;;;;;;5083597;28;20040;-34
2023/11/15 03:44:32;;;;;;;;;;;17.60;63.40;;;;;;5083116;28;20055;-34
2023/11/15 03:46:58;;;;;;;1.67;1.42;;;17.50;63.40;;;;;;5083226;28;19913;-34
2023/11/15 03:49:24;;;;;;;1.83;1.63;;;17.50;63.40;;;;;;5074388;28;20043;-33
2023/11/15 03:51:50;;;;;;;1.80;1.70;;;17.50;63.40;;;;;;5084629;28;20020;-35
2023/11/15 03:54:16;;;;;;;1.92;1.73;;;17.50;63.40;;;;;;5082802;28;20060;-35
2023/11/15 03:56:43;;;;;;;1.80;1.55;;;17.50;63.50;;;;;;5082739;28;20031;-34
2023/11/15 03:59:09;;;;;;;1.90;1.60;;;17.50;63.50;;;;;;5083291;28;20040;-34
2023/11/15 04:01:36;;;;;;;1.83;1.70;;;17.50;63.50;;;;;;5083009;28;20032;-34
2023/11/15 04:04:02;;;;;;;2.13;1.90;;;17.50;63.50;;;;;;5082574;28;20028;-33
2023/11/15 04:06:28;;;;;;;1.90;1.70;;;17.50;63.50;;;;;;5081235;28;20140;-33
2023/11/15 04:09:15;;;;;;;2.33;1.77;;;17.40;63.70;;;;;;5076547;28;20036;-34
2023/11/15 04:11:41;;;;;;;2.08;1.63;;;17.40;63.60;;;;;;5040668;28;20048;-34
2023/11/15 04:14:07;;;;;;;1.67;1.50;;;17.40;63.70;;;;;;5040888;28;20140;-33
2023/11/15 04:16:33;;;;;;;1.75;1.65;;;17.40;63.70;;;;;;5040791;28;20046;-33
2023/11/15 04:18:59;;;;;;;1.88;1.60;;;17.40;63.60;;;;;;5040663;28;20036;-34
2023/11/15 04:21:26;;;;;;;2.10;1.83;;;17.40;63.70;;;;;;5040460;28;20029;-33
2023/11/15 04:23:53;;;;;;;2.50;1.85;;;17.40;63.60;;;;;;5044786;28;20033;-33
2023/11/15 04:26:21;;;;;;;2.08;1.75;;;17.40;63.70;;;;;;5022627;28;20049;-33
2023/11/15 04:28:47;;;;;;;2.03;1.60;;;17.40;63.80;;;;;;5056435;28;20030;-34
2023/11/15 04:31:14;;;;;;;2.33;1.88;;;17.40;63.70;;;;;;5012979;28;20021;-33
2023/11/15 04:33:40;;;;;;;2.20;1.70;;;17.30;63.80;;;;;;5039563;28;20021;-33
2023/11/15 04:36:07;;;;;;;2.35;1.88;;;17.30;63.80;;;;;;5040699;28;20061;-34
2023/11/15 04:38:34;;;;;;;2.50;1.70;;;17.30;63.70;;;;;;5039693;28;20116;-34
2023/11/15 04:41:00;;;;;;;2.00;1.80;;;17.30;64.50;;;;;;5010813;28;20205;-34
2023/11/15 04:43:26;;;;;;;2.00;1.70;;;17.30;63.90;;;;;;5038926;28;20126;-34
2023/11/15 04:45:52;;;;;;;3.70;1.65;;;17.30;63.90;;;;;;5040593;28;20034;-34
2023/11/15 04:48:18;;;;;;;2.10;1.88;;;17.30;63.80;;;;;;5052184;28;20120;-34
2023/11/15 04:50:44;;;;;;;2.40;1.65;;;17.30;63.80;;;;;;5084088;28;20106;-34
2023/11/15 04:53:10;;;;;;;3.05;1.85;;;17.30;63.90;;;;;;5086666;28;20104;-34
2023/11/15 04:55:36;;;;;;;1.70;1.60;;;17.20;64.00;;;;;;5086518;28;20020;-34
2023/11/15 04:58:03;;;;;;;1.90;1.58;;;17.20;63.90;;;;;;5086222;28;20035;-34
2023/11/15 05:00:29;;;;;;;1.60;1.50;;;17.30;63.90;;;;;;5085793;28;20059;-34
2023/11/15 05:02:55;;;;;;;2.20;1.73;;;17.40;64.30;;;;;;5086297;28;20024;-38
2023/11/15 05:05:21;;;;;;;1.48;1.38;;;17.40;64.30;;;;;;5085187;28;20032;-33
2023/11/15 05:07:47;;;;;;;2.13;1.33;;;17.40;64.20;;;;;;5078249;28;20035;-33
2023/11/15 05:10:13;;;;;;;2.10;1.60;;;17.40;64.30;;;;;;5085479;28;20037;-33
2023/11/15 05:12:40;;;;;;;1.73;1.50;;;17.40;64.30;;;;;;5085795;28;20033;-34
2023/11/15 05:15:06;;;;;;;1.67;1.33;;;17.40;64.20;;;;;;5085941;28;20059;-34
2023/11/15 05:17:33;;;;;;;2.23;1.70;;;17.40;64.30;;;;;;5085609;28;20040;-34
2023/11/15 05:19:59;;;;;;;2.75;1.60;;;17.30;64.10;;;;;;5085650;28;20028;-34
2023/11/15 05:22:25;;;;;;;1.63;1.52;;;17.30;64.20;;;;;;5085573;28;20039;-34
2023/11/15 05:24:51;;;;;;;2.60;1.58;;;17.30;64.40;;;;;;5085658;28;20020;-34
2023/11/15 05:27:17;;;;;;;1.90;1.67;;;17.30;64.30;;;;;;5085194;28;20039;-34
2023/11/15 05:29:45;;;;;;;1.55;1.45;;;17.30;64.20;;;;;;5077461;28;20495;-34
2023/11/15 05:32:11;;;;;;;2.22;1.45;;;17.40;64.60;;;;;;5085427;28;20036;-34
2023/11/15 05:34:37;;;;;;;2.45;1.48;;;17.40;64.60;;;;;;5085201;28;20039;-34
2023/11/15 05:37:03;;;;;;;1.80;1.50;;;17.50;64.70;;;;;;5079705;28;20041;-34
2023/11/15 05:39:30;;;;;;;1.70;1.45;;;17.40;64.60;;;;;;5082148;28;20028;-34
2023/11/15 05:41:56;;;;;;;1.60;1.50;;;17.40;64.40;;;;;;5085903;28;20512;-34
2023/11/15 05:44:23;;;;;;;1.40;1.25;;;17.40;64.50;;;;;;5084811;28;20055;-34
2023/11/15 05:46:49;;;;;;;1.63;1.45;;;17.40;64.40;;;;;;5085400;28;20044;-34
2023/11/15 05:49:15;;;;;;;2.17;1.65;;;17.40;64.50;;;;;;5075782;28;20028;-34
2023/11/15 05:51:42;;;;;;;1.30;1.20;;;17.40;64.40;;;;;;5090255;28;20032;-36
2023/11/15 05:54:08;;;;;;;2.28;1.52;;;17.30;64.30;;;;;;5085444;28;20277;-34
2023/11/15 05:56:34;;;;;;;1.92;1.38;;;17.30;64.40;;;;;;5085333;28;20016;-34
2023/11/15 05:59:00;;;;;;;1.80;1.40;;;17.30;64.40;;;;;;5085634;28;20028;-35
2023/11/15 06:01:26;;;;;;;1.50;1.27;;;17.30;64.30;;;;;;5083538;28;20070;-34
2023/11/15 06:03:53;;;;;;;1.58;1.23;;;17.30;64.40;;;;;;5084241;28;20024;-34
2023/11/15 06:06:20;;;;;;;1.40;1.20;;;17.30;64.50;;;;;;5083324;28;20036;-34
2023/11/15 06:08:47;;;;;;;1.50;1.38;;;17.30;64.40;;;;;;5077340;28;20024;-34
2023/11/15 06:11:13;;;;;;;1.55;1.30;;;17.30;64.40;;;;;;5084317;28;20477;-34
2023/11/15 06:13:41;;;;;;;1.73;1.20;;;17.30;64.70;;;;;;5082183;28;20036;-34
2023/11/15 06:16:07;;;;;;;1.08;0.98;;;17.40;64.90;;;;;;5080325;28;20067;-34
2023/11/15 06:18:35;;;;;;;1.30;1.20;;;17.40;64.80;;;;;;5084021;28;20029;-34
2023/11/15 06:21:01;;;;;;;2.10;1.27;;;17.40;64.70;;;;;;5084127;28;20481;-34
2023/11/15 06:23:27;;;;;;;1.80;1.20;;;17.40;64.70;;;;;;5084070;28;20092;-34
2023/11/15 06:25:54;;;;;;;1.63;1.45;;;17.40;64.70;;;;;;5086180;28;20064;-34
2023/11/15 06:28:20;;;;;;;2.50;1.37;;;17.40;64.60;;;;;;5083599;28;20028;-34
2023/11/15 06:30:47;;;;;;;1.63;1.27;;;17.40;64.70;;;;;;5070297;28;20067;-34
2023/11/15 06:33:13;;;;;;;2.53;1.50;;;17.40;64.70;;;;;;5076518;28;20039;-34
2023/11/15 06:35:39;;;;;;;1.85;1.55;;;17.30;64.60;;;;;;5084987;28;20036;-34
2023/11/15 06:38:06;;;;;;;1.27;1.17;;;17.30;64.60;;;;;;5077670;28;20039;-33
2023/11/15 06:40:32;;;;;;;1.40;1.23;;;17.30;64.50;;;;;;5076122;28;20040;-33
2023/11/15 06:42:58;;;;;;;2.47;1.40;;;17.30;64.50;;;;;;5071470;28;20553;-33
2023/11/15 06:45:24;;;;;;;1.48;1.02;;;17.30;64.50;;;;;;5083479;28;20048;-34
2023/11/15 06:47:51;;;;;;;1.20;1.10;;;17.40;65.00;;;;;;5090745;28;20024;-34
2023/11/15 06:50:18;;;;;;;2.03;1.23;;;17.50;65.10;;;;;;5083005;28;20122;-34
2023/11/15 06:52:45;;;;;;;1.77;1.20;;;17.50;65.10;;;;;;5077123;28;20024;-34
2023/11/15 06:55:11;;;;;;;1.50;1.40;;;17.40;65.00;;;;;;5084591;28;20025;-33
2023/11/15 06:57:41;;;;;;;1.50;1.40;;;17.40;64.90;;;;;;5073072;28;20093;-34
2023/11/15 07:00:11;;;;;;;1.30;1.10;;;17.40;64.80;;;;;;5112160;28;20055;-33
2023/11/15 07:02:57;;;;;;;1.85;1.45;;;17.40;64.80;;;;;;5062086;28;20065;-33
2023/11/15 07:05:23;;;;;;;1.45;1.23;;;17.40;64.80;;;;;;5061475;28;20055;-34
2023/11/15 07:07:49;;;;;;;1.23;1.13;;;17.40;64.80;;;;;;5061821;28;20140;-34
2023/11/15 07:10:16;;;;;;;1.30;1.20;;;17.30;64.80;;;;;;5061717;28;20059;-34
2023/11/15 07:12:42;;;;;;;2.08;1.38;;;17.30;64.70;;;;;;5061244;28;20056;-34
2023/11/15 07:15:14;;;;;;;1.30;1.20;;;17.30;64.60;;;;;;5061898;28;20048;-34
2023/11/15 07:17:40;;;;;;;2.35;1.40;;;17.30;64.60;;;;;;5054154;28;20037;-34
2023/11/15 07:20:09;;;;;;;1.83;1.40;;;17.30;64.70;;;;;;5061700;28;20037;-34
2023/11/15 07:22:39;;;;;;;1.65;1.40;;;17.40;65.10;;;;;;5044216;28;20036;-34
2023/11/15 07:25:06;;;;;;;1.33;1.23;;;17.50;65.30;;;;;;5061585;28;20071;-34
2023/11/15 07:27:34;;;;;;;1.67;1.10;;;17.50;65.20;;;;;;5060965;28;20040;-34
2023/11/15 07:30:00;;;;;;;1.40;1.30;;;17.50;65.10;;;;;;5061404;28;20192;-34
2023/11/15 07:32:28;;;;;;;1.75;1.42;;;17.40;65.10;;;;;;5060700;28;20033;-33
2023/11/15 07:34:54;;;;;;;;;;;17.40;65.10;;;;;;5061773;28;20564;-34
2023/11/15 07:37:21;;;;;;;2.15;1.30;;;17.40;64.90;;;;;;5061083;28;19951;-33
2023/11/15 07:39:47;;;;;;;1.40;1.17;;;17.40;64.90;;;;;;5070694;28;20088;-33
2023/11/15 07:42:15;;;;;;;1.70;1.40;;;17.40;65.00;;;;;;5082416;28;20040;-34
2023/11/15 07:44:43;;;;;;;1.70;1.50;;;17.40;64.90;;;;;;5075667;28;20044;-34
2023/11/15 07:47:10;;;;;;;1.50;1.40;;;17.30;64.80;;;;;;5074096;28;20029;-34
2023/11/15 07:49:37;;;;;;;1.30;1.20;;;17.30;64.80;;;;;;5075382;28;20055;-34
2023/11/15 07:52:03;;;;;;;2.50;1.60;;;17.30;64.80;;;;;;5082849;28;20032;-34
2023/11/15 07:54:29;;;;;;;2.13;1.60;;;17.30;64.80;;;;;;5082179;28;20054;-34
2023/11/15 07:56:56;;;;;;;1.42;1.13;;;17.30;64.80;;;;;;5093806;28;20293;-34
2023/11/15 07:59:22;;;;;;;1.38;1.27;;;17.40;65.30;;;;;;5082464;28;20035;-34
2023/11/15 08:01:48;;;;;;;1.48;1.20;;;17.50;65.30;;;;;;5086266;28;20028;-34
2023/11/15 08:04:15;;;;;;;1.90;1.40;;;17.50;65.30;;;;;;5081880;28;20024;-34
2023/11/15 08:06:42;;;;;;;1.48;1.38;;;17.40;65.10;;;;;;5079172;28;20037;-34
2023/11/15 08:09:08;;;;;;;1.35;1.25;;;17.40;65.10;;;;;;5078521;28;20028;-34
2023/11/15 08:11:37;;;;;;;0.93;0.90;;;17.40;65.10;;;;;;5081689;28;20036;-34
2023/11/15 08:14:06;;;;;;;1.40;1.30;;;17.40;65.00;;;;;;5081864;28;20029;-34
2023/11/15 08:16:33;;;;;;;1.63;1.45;;;17.40;65.10;;;;;;5082142;28;20037;-35
2023/11/15 08:19:01;;;;;;;2.15;1.50;;;17.40;65.00;;;;;;5089666;28;20088;-34
2023/11/15 08:21:29;;;;;;;1.67;1.40;;;17.30;64.90;;;;;;5081794;28;20093;-34
2023/11/15 08:23:55;;;;;;;1.75;1.40;;;17.30;64.90;;;;;;5075154;28;20080;-33
2023/11/15 08:26:21;;;;;;;1.63;1.30;;;17.30;64.80;;;;;;5085593;28;20063;-34
2023/11/15 08:28:47;;;;;;;1.42;1.33;;;17.30;64.90;;;;;;5087013;28;20032;-34
2023/11/15 08:31:23;;;;;;;0.95;0.90;;;17.30;64.90;;;;;;5086696;28;20085;-34
2023/11/15 08:33:49;;;;;;;1.48;1.33;;;17.40;65.30;;;;;;5071597;28;20039;-34
2023/11/15 08:36:16;;;;;;;1.75;1.35;;;17.50;65.40;;;;;;5085964;28;20046;-33
2023/11/15 08:38:42;;;;;;;2.40;1.63;;;17.50;65.30;;;;;;5086032;28;20033;-33
2023/11/15 08:41:09;;;;;;;1.77;1.50;;;17.40;65.90;;;;;;5086615;28;20047;-33
2023/11/15 08:43:35;;;;;;;2.20;1.45;;;17.40;65.10;;;;;;5078513;28;20168;-34
2023/11/15 08:46:02;;;;;;;2.25;1.48;;;17.40;65.10;;;;;;5086228;28;20520;-33
2023/11/15 08:48:28;;;;;;;1.38;1.27;;;17.40;65.10;;;;;;5083980;28;20021;-33
2023/11/15 08:50:55;;;;;;;1.52;1.40;;;17.40;65.10;;;;;;5088299;28;20056;-34
2023/11/15 08:53:25;;;;;;;1.58;1.40;;;17.40;65.10;;;;;;5087658;28;20671;-33
2023/11/15 08:55:51;;;;;;;1.90;1.63;;;17.30;64.90;;;;;;5086311;28;20567;-34
2023/11/15 08:58:17;;;;;;;1.63;1.50;;;17.30;65.00;;;;;;5086055;28;20031;-34
2023/11/15 09:00:46;;;;;;;1.50;1.38;;;17.30;64.90;;;;;;5079016;28;20032;-34
2023/11/15 09:03:14;;;;;;;1.98;1.50;;;17.30;65.10;;;;;;5085959;28;20028;-34
2023/11/15 09:05:44;;;;;;;1.33;1.23;;;17.40;65.30;;;;;;5085910;28;20048;-34
2023/11/15 09:08:10;;;;;;;1.30;1.20;;;17.50;65.40;;;;;;5086196;28;20044;-34
2023/11/15 09:10:36;;;;;;;2.00;1.40;;;17.50;65.30;;;;;;5085856;28;20044;-34
2023/11/15 09:13:08;;;;;;;1.50;1.40;;;17.50;65.20;;;;;;5085619;28;20043;-34
2023/11/15 09:15:35;;;;;;;1.38;1.25;;;17.50;65.20;;;;;;5085285;28;20033;-34
2023/11/15 09:18:04;;;;;;;1.98;1.40;;;17.40;65.00;;;;;;5085722;28;20071;-34
2023/11/15 09:20:31;;;;;;;1.80;1.40;;;17.40;65.10;;;;;;5085074;28;20069;-34
2023/11/15 09:22:57;;;;;;;1.52;1.40;;;17.40;65.00;;;;;;5079305;28;20751;-34
2023/11/15 09:25:24;;;;;;;2.03;1.40;;;17.40;65.00;;;;;;5083651;28;20052;-38
2023/11/15 09:27:52;;;;;;;1.90;1.70;;;17.40;64.90;;;;;;5085732;28;20024;-35
2023/11/15 09:30:19;;;;;;;1.83;1.10;;;17.40;64.90;;;;;;5076488;28;20067;-34
2023/11/15 09:32:49;;;;;;;1.88;1.30;;;17.40;64.90;;;;;;5078608;28;20029;-34
2023/11/15 09:35:21;;;;;;;1.73;1.50;;;17.30;64.80;;;;;;5084882;28;20491;-39
2023/11/15 09:37:49;;;;;;;1.55;1.30;;;17.30;64.90;;;;;;5103780;28;20032;-34
2023/11/15 09:40:16;;;;;;;1.67;1.20;;;17.40;65.20;;;;;;5076341;28;20037;-34
2023/11/15 09:42:46;;;;;;;1.33;1.17;;;17.50;65.20;;;;;;5084959;28;20047;-34
2023/11/15 09:45:16;;;;;;;1.30;1.20;;;17.50;65.20;;;;;;5085387;28;20052;-34
2023/11/15 09:47:44;;;;;;;1.35;1.25;;;17.50;65.10;;;;;;5085301;28;20032;-35
2023/11/15 09:50:11;;;;;;;2.08;1.42;;;17.50;65.00;;;;;;5084827;28;20116;-34
2023/11/15 09:52:39;;;;;;;1.40;1.25;;;17.50;65.70;;;;;;5085342;28;20096;-34
2023/11/15 09:55:05;;;;;;;1.60;1.50;;;17.40;64.90;;;;;;5084828;28;20040;-34
2023/11/15 09:57:31;;;;;;;1.42;1.30;;;17.40;64.90;;;;;;5084101;28;20072;-34
2023/11/15 09:59:58;;;;;;;1.70;1.60;;;17.40;65.00;;;;;;5085032;28;20037;-34
2023/11/15 10:02:28;;;;;;;2.00;1.33;;;17.40;64.90;;;;;;5083632;28;20032;-34
2023/11/15 10:05:31;;;;;;;2.75;1.52;;;17.40;64.90;;;;;;5088533;28;20032;-34
2023/11/15 10:08:17;;;;;;;1.50;1.25;;;17.40;64.80;;;;;;5079658;28;20431;-34
2023/11/15 10:10:45;;;;;;;1.50;1.40;;;17.30;64.70;;;;;;5085470;28;20794;-35
2023/11/15 10:13:15;;;;;;;1.83;1.33;;;17.30;64.70;;;;;;5085183;28;20115;-34
2023/11/15 10:15:43;;;;;;;1.42;1.33;;;17.30;64.70;;;;;;5084782;28;20031;-33
2023/11/15 10:18:14;;;;;;;1.55;1.40;;;17.40;64.80;;;;;;5083689;28;20032;-33
2023/11/15 10:20:43;;;;;;;1.60;1.50;;;17.50;64.90;;;;;;5084741;28;20021;-34
2023/11/15 10:23:13;;;;;;;1.63;1.52;;;17.50;64.70;;;;;;5084724;28;20044;-34
2023/11/15 10:25:54;;;;;;;1.70;1.50;;;17.50;64.70;;;;;;5084471;28;20044;-34
2023/11/15 10:28:26;;;;;;;1.63;1.33;;;17.50;64.70;;;;;;5084231;28;20032;-35
2023/11/15 10:31:15;;;;;;;1.80;1.60;;;17.40;64.60;;;;;;5084239;28;20499;-34
2023/11/15 10:33:49;;;;;;;2.00;1.40;;;17.40;64.60;;;;;;5083979;28;20040;-35
2023/11/15 10:36:22;;;;;;;1.73;1.60;;;17.40;64.60;;;;;;5084048;28;20032;-33
2023/11/15 10:38:55;;;;;;;1.77;1.58;;;17.40;65.30;;;;;;5074218;28;20029;-33
2023/11/15 10:41:25;;;;;;;1.50;1.30;;;17.40;64.60;;;;;;5081833;28;20119;-34
2023/11/15 10:43:54;;;;;;;1.63;1.52;;;17.30;64.60;;;;;;5090469;28;20059;-34
2023/11/15 10:46:30;;;;;;;1.85;1.45;;;17.30;64.60;;;;;;5083048;28;20091;-34
2023/11/15 10:49:00;;;;;;;1.30;1.20;;;17.40;64.70;;;;;;5083910;28;20039;-34
2023/11/15 10:51:44;;;;;;;2.85;1.52;;;17.50;64.70;;;;;;5083189;28;20032;-34
2023/11/15 10:54:13;;;;;;;1.65;1.55;;;17.50;64.50;;;;;;5084044;28;20021;-34
2023/11/15 10:56:41;;;;;;;1.52;1.30;;;17.50;64.60;;;;;;5084007;28;20025;-34
2023/11/15 10:59:12;;;;;;;1.88;1.50;;;17.50;64.50;;;;;;5084215;28;20032;-34
2023/11/15 11:01:39;;;;;;;1.50;1.27;;;17.40;64.40;;;;;;5074941;28;20036;-34
2023/11/15 11:04:10;;;;;;;1.80;1.60;;;17.40;64.40;;;;;;5082838;28;20126;-34
2023/11/15 11:06:57;;;;;;;1.92;1.60;;;17.40;64.40;;;;;;5080102;28;20070;-34
2023/11/15 11:09:48;;;;;;;1.42;1.23;;;17.40;64.50;;;;;;5113474;28;20082;-33
2023/11/15 11:12:16;;;;;;;1.65;1.55;;;17.40;64.50;;;;;;5093983;28;20036;-35
2023/11/15 11:14:42;;;;;;;2.33;1.80;;;17.40;64.50;;;;;;5079455;28;20478;-35
2023/11/15 11:17:32;;;;;;;2.80;1.40;;;17.30;64.40;;;;;;5080408;28;20117;-34
2023/11/15 11:20:00;;;;;;;1.70;1.30;;;17.30;64.40;;;;;;5077848;28;20032;-33
2023/11/15 11:22:27;;;;;;;1.40;1.30;;;17.40;64.60;;;;;;5083703;28;20039;-34
2023/11/15 11:25:10;;;;;;;1.65;1.20;;;17.50;64.70;;;;;;5083462;28;20063;-34
2023/11/15 11:27:42;;;;;;;1.30;1.20;;;17.50;64.50;;;;;;5083477;28;20032;-34
2023/11/15 11:30:11;;;;;;;1.77;1.40;;;17.50;64.60;;;;;;5083626;28;20059;-34
2023/11/15 11:32:41;;;;;;;1.50;1.30;;;17.50;64.50;;;;;;5083155;28;20047;-34
2023/11/15 11:35:07;;;;;;;1.98;1.30;;;17.40;64.40;;;;;;5082430;28;20029;-34
2023/11/15 11:37:44;;;;;;;1.77;1.30;;;17.40;64.40;;;;;;5076388;28;20043;-35
2023/11/15 11:40:13;;;;;;;1.42;1.30;;;17.40;64.50;;;;;;5083689;28;20088;-34
2023/11/15 11:42:40;;;;;;;1.50;1.30;;;17.40;64.40;;;;;;5074423;28;20078;-34
2023/11/15 11:45:07;;;;;;;;;;;17.40;64.40;;;;;;5083895;28;20033;-34
2023/11/15 11:47:39;;;;;;;1.17;1.08;;;17.30;64.40;;;;;;5083653;28;19917;-35
2023/11/15 11:50:06;;;;;;;2.22;1.17;;;17.40;64.80;;;;;;5083236;28;20033;-34
2023/11/15 11:52:34;;;;;;;1.33;1.15;;;17.50;64.90;;;;;;5083597;28;20056;-34
2023/11/15 11:55:01;;;;;;;1.30;1.20;;;17.50;64.80;;;;;;5081816;28;20043;-36
2023/11/15 11:57:27;;;;;;;1.92;1.38;;;17.50;64.70;;;;;;5082126;28;20111;-35
2023/11/15 12:00:01;;;;;;;3.00;1.50;;;17.50;64.70;;;;;;5074723;28;20036;-36
2023/11/15 12:02:36;;;;;;;1.83;1.42;;;17.40;64.60;;;;;;5079522;28;20032;-36
2023/11/15 12:05:06;;;;;;;1.33;1.17;;;17.40;64.60;;;;;;5071767;28;20033;-35
2023/11/15 12:07:32;;;;;;;1.20;1.02;;;17.40;64.60;;;;;;5074634;28;20032;-34
2023/11/15 12:10:12;;;;;;;1.20;1.10;;;17.40;64.60;;;;;;5083533;28;20067;-34
2023/11/15 12:12:39;;;;;;;1.60;1.50;;;17.40;64.60;;;;;;5079837;28;20050;-34
2023/11/15 12:15:12;;;;;;;1.83;1.40;;;17.40;64.60;;;;;;5071368;28;20036;-34
2023/11/15 12:17:42;;;;;;;1.60;1.40;;;17.40;64.60;;;;;;5082815;28;20066;-34
2023/11/15 12:20:12;;;;;;;1.70;1.60;;;17.30;64.60;;;;;;5082805;28;20024;-34
2023/11/15 12:22:43;;;;;;;1.50;1.30;;;17.40;64.80;;;;;;5083287;28;20039;-34
2023/11/15 12:25:16;;;;;;;1.40;1.20;;;17.50;64.90;;;;;;5078457;28;20679;-35
2023/11/15 12:27:42;;;;;;;1.65;1.42;;;17.50;64.90;;;;;;5064557;28;20036;-35
2023/11/15 12:30:10;;;;;;;2.58;1.35;;;17.50;64.80;;;;;;5079216;28;20260;-35
2023/11/15 12:32:41;;;;;;;;;;;17.50;64.70;;;;;;5083437;28;20036;-35
2023/11/15 12:35:11;;;;;;;2.08;1.35;;;17.40;64.60;;;;;;5072711;28;19943;-35
2023/11/15 12:37:37;;;;;;;1.25;1.15;;;17.40;64.60;;;;;;5075881;28;20031;-35
2023/11/15 12:40:19;;;;;;;1.70;1.42;;;17.40;64.70;;;;;;5077624;28;20037;-35
2023/11/15 12:42:48;;;;;;;1.45;1.35;;;17.40;64.70;;;;;;5075223;28;20053;-35
2023/11/15 12:45:33;;;;;;;1.80;1.30;;;17.40;64.70;;;;;;5081200;28;20355;-34
2023/11/15 12:48:04;;;;;;;1.52;1.42;;;17.30;64.60;;;;;;5072041;28;20088;-35
2023/11/15 12:50:35;;;;;;;1.60;1.50;;;17.40;64.80;;;;;;5081151;28;20036;-34
2023/11/15 12:53:05;;;;;;;1.63;1.30;;;17.50;65.50;;;;;;5082808;28;20036;-35